オウル の空港の天気 - METARとTAF

オウル空港 ( EFOU / OUL ) - フィンランド Oulunsalo
飛行場実況気象(Metar)
観測時間01/18 11:20 EET (01/18 09:20 UTC)
風向・風速東南東 5m/s
視程10km以上
天気現象弱い雪
全天の4割程度の雲 雲底高度 980m
全天の8割程度の雲 雲底高度 1250m
全天を覆う雲 雲底高度 1710m
気温-7℃
湿度86%
気圧1004hPa
METAREFOU 180920Z AUTO 11009KT 9999 -SN SCT032/// BKN041/// OVC056/// M07/M09 Q1004
過去の天気等 Google飛行場航空写真 Wunderground天気予報

過去48時間のMETAR

飛行場予報(TAF)
発表時間: 1/18 10:22 EET (1/18 08:22 UTC)
予報対象時間: 18日11時 EET ~ 19日11時 EET
風向・風速東 5m/s
視程10km以上
天気現象弱い雪
全天の8割程度の雲 雲底高度 1,070m
18日11時 EET ~ 19日2時 EET に一時的に
視程4,000m
全天の8割程度の雲 雲底高度 400m
19日2時 EET ~ 19日7時 EET に一時的に
視程2,000m
天気現象
TAF EFOU 180822Z 1809/1909 10010KT 9999 -SN BKN035
TEMPO 1809/1824 4000 BKN013
TEMPO 1900/1905 2000 SN